sensor_id;sensor_type;location;lat;lon;timestamp;pressure;altitude;pressure_sealevel;temperature;humidity
5814;BME280;2933;52.302;8.134;2023-09-19T00:02:07;99548.31;;;15.63;100.00
5814;BME280;2933;52.302;8.134;2023-09-19T00:07:09;99558.69;;;15.65;100.00
5814;BME280;2933;52.302;8.134;2023-09-19T00:12:12;99558.31;;;15.60;100.00
5814;BME280;2933;52.302;8.134;2023-09-19T00:17:14;99566.16;;;15.51;100.00
5814;BME280;2933;52.302;8.134;2023-09-19T00:22:16;99569.44;;;15.54;100.00
5814;BME280;2933;52.302;8.134;2023-09-19T00:27:20;99574.81;;;15.62;100.00
5814;BME280;2933;52.302;8.134;2023-09-19T00:32:22;99578.09;;;15.64;100.00
5814;BME280;2933;52.302;8.134;2023-09-19T00:37:24;99574.09;;;15.60;100.00
5814;BME280;2933;52.302;8.134;2023-09-19T00:42:27;99578.19;;;15.54;100.00
5814;BME280;2933;52.302;8.134;2023-09-19T00:47:29;99573.03;;;15.52;100.00
5814;BME280;2933;52.302;8.134;2023-09-19T00:52:31;99591.56;;;15.61;100.00
5814;BME280;2933;52.302;8.134;2023-09-19T00:57:35;99587.91;;;15.44;100.00
5814;BME280;2933;52.302;8.134;2023-09-19T01:02:38;99596.28;;;15.39;100.00
5814;BME280;2933;52.302;8.134;2023-09-19T01:07:40;99604.75;;;15.33;100.00
5814;BME280;2933;52.302;8.134;2023-09-19T01:12:50;99610.53;;;15.37;100.00
5814;BME280;2933;52.302;8.134;2023-09-19T01:17:59;99622.88;;;15.36;100.00
5814;BME280;2933;52.302;8.134;2023-09-19T01:23:12;99621.50;;;15.32;100.00
5814;BME280;2933;52.302;8.134;2023-09-19T01:28:30;99631.75;;;15.25;100.00
5814;BME280;2933;52.302;8.134;2023-09-19T01:33:58;99633.34;;;15.18;100.00
5814;BME280;2933;52.302;8.134;2023-09-19T01:39:02;99634.41;;;15.25;100.00
5814;BME280;2933;52.302;8.134;2023-09-19T01:44:17;99635.13;;;15.17;100.00
5814;BME280;2933;52.302;8.134;2023-09-19T01:49:32;99646.66;;;15.07;100.00
5814;BME280;2933;52.302;8.134;2023-09-19T01:54:41;99658.41;;;15.12;100.00
5814;BME280;2933;52.302;8.134;2023-09-19T01:59:48;99678.09;;;15.08;100.00
5814;BME280;2933;52.302;8.134;2023-09-19T02:04:54;99658.59;;;15.01;100.00
5814;BME280;2933;52.302;8.134;2023-09-19T02:09:56;99657.97;;;15.17;100.00
5814;BME280;2933;52.302;8.134;2023-09-19T02:14:59;99667.81;;;15.15;100.00
5814;BME280;2933;52.302;8.134;2023-09-19T02:20:02;99672.66;;;15.19;100.00
5814;BME280;2933;52.302;8.134;2023-09-19T02:25:10;99669.19;;;15.09;100.00
5814;BME280;2933;52.302;8.134;2023-09-19T02:30:14;99670.06;;;15.00;100.00
5814;BME280;2933;52.302;8.134;2023-09-19T02:35:18;99677.53;;;15.05;100.00
5814;BME280;2933;52.302;8.134;2023-09-19T02:40:20;99675.63;;;14.97;100.00
5814;BME280;2933;52.302;8.134;2023-09-19T02:45:22;99668.56;;;14.88;100.00
5814;BME280;2933;52.302;8.134;2023-09-19T02:50:25;99680.06;;;14.86;100.00
5814;BME280;2933;52.302;8.134;2023-09-19T02:55:27;99687.69;;;14.80;100.00
5814;BME280;2933;52.302;8.134;2023-09-19T03:00:28;99688.25;;;14.74;100.00
5814;BME280;2933;52.302;8.134;2023-09-19T03:05:31;99699.72;;;14.73;100.00
5814;BME280;2933;52.302;8.134;2023-09-19T03:10:33;99700.03;;;14.69;100.00
5814;BME280;2933;52.302;8.134;2023-09-19T03:15:41;99709.00;;;14.57;100.00
5814;BME280;2933;52.302;8.134;2023-09-19T03:20:52;99697.38;;;14.50;100.00
5814;BME280;2933;52.302;8.134;2023-09-19T03:25:54;99705.09;;;14.51;100.00
5814;BME280;2933;52.302;8.134;2023-09-19T03:30:59;99686.28;;;14.36;100.00
5814;BME280;2933;52.302;8.134;2023-09-19T03:36:03;99708.28;;;14.35;100.00
5814;BME280;2933;52.302;8.134;2023-09-19T03:41:06;99709.38;;;14.33;100.00
5814;BME280;2933;52.302;8.134;2023-09-19T03:46:07;99711.03;;;14.34;100.00
5814;BME280;2933;52.302;8.134;2023-09-19T03:51:10;99705.22;;;14.30;100.00
5814;BME280;2933;52.302;8.134;2023-09-19T03:56:12;99704.53;;;14.28;100.00
5814;BME280;2933;52.302;8.134;2023-09-19T04:01:13;99707.97;;;14.19;100.00
5814;BME280;2933;52.302;8.134;2023-09-19T04:06:18;99709.91;;;14.27;100.00
5814;BME280;2933;52.302;8.134;2023-09-19T04:11:20;99728.16;;;14.18;100.00
5814;BME280;2933;52.302;8.134;2023-09-19T04:16:22;99747.53;;;14.17;100.00
5814;BME280;2933;52.302;8.134;2023-09-19T04:21:25;99740.19;;;14.11;100.00
5814;BME280;2933;52.302;8.134;2023-09-19T04:26:28;99715.03;;;14.09;100.00
5814;BME280;2933;52.302;8.134;2023-09-19T04:31:29;99721.78;;;14.01;100.00
5814;BME280;2933;52.302;8.134;2023-09-19T04:36:33;99738.50;;;14.10;100.00
5814;BME280;2933;52.302;8.134;2023-09-19T04:41:36;99751.66;;;14.10;100.00
5814;BME280;2933;52.302;8.134;2023-09-19T04:46:39;99752.19;;;14.04;100.00
5814;BME280;2933;52.302;8.134;2023-09-19T04:51:42;99755.09;;;14.11;100.00
5814;BME280;2933;52.302;8.134;2023-09-19T04:56:43;99758.41;;;14.03;100.00
5814;BME280;2933;52.302;8.134;2023-09-19T05:01:45;99747.06;;;14.02;100.00
5814;BME280;2933;52.302;8.134;2023-09-19T05:06:48;99767.03;;;13.84;100.00
5814;BME280;2933;52.302;8.134;2023-09-19T05:11:51;99773.16;;;13.63;100.00
5814;BME280;2933;52.302;8.134;2023-09-19T05:16:53;99787.09;;;13.64;100.00
5814;BME280;2933;52.302;8.134;2023-09-19T05:21:56;99798.31;;;13.66;100.00
5814;BME280;2933;52.302;8.134;2023-09-19T05:26:57;99813.88;;;13.57;100.00
5814;BME280;2933;52.302;8.134;2023-09-19T05:31:59;99813.34;;;13.64;100.00
5814;BME280;2933;52.302;8.134;2023-09-19T05:37:02;99808.38;;;13.61;100.00
5814;BME280;2933;52.302;8.134;2023-09-19T05:42:05;99814.59;;;13.60;100.00
5814;BME280;2933;52.302;8.134;2023-09-19T05:47:08;99805.44;;;13.54;100.00
5814;BME280;2933;52.302;8.134;2023-09-19T05:52:11;99803.94;;;13.61;100.00
5814;BME280;2933;52.302;8.134;2023-09-19T05:57:12;99801.06;;;13.64;100.00
5814;BME280;2933;52.302;8.134;2023-09-19T06:02:15;99797.16;;;13.58;100.00
5814;BME280;2933;52.302;8.134;2023-09-19T06:07:18;99807.59;;;13.70;100.00
5814;BME280;2933;52.302;8.134;2023-09-19T06:12:19;99810.34;;;13.68;100.00
5814;BME280;2933;52.302;8.134;2023-09-19T06:17:21;99822.81;;;13.76;100.00
5814;BME280;2933;52.302;8.134;2023-09-19T06:22:24;99830.34;;;13.90;100.00
5814;BME280;2933;52.302;8.134;2023-09-19T06:27:25;99826.19;;;13.88;100.00
5814;BME280;2933;52.302;8.134;2023-09-19T06:32:28;99822.91;;;13.96;100.00
5814;BME280;2933;52.302;8.134;2023-09-19T06:37:31;99813.72;;;14.11;100.00
5814;BME280;2933;52.302;8.134;2023-09-19T06:42:33;99800.34;;;14.24;100.00
5814;BME280;2933;52.302;8.134;2023-09-19T06:47:34;99818.94;;;14.42;100.00
5814;BME280;2933;52.302;8.134;2023-09-19T06:52:38;99836.63;;;14.40;100.00
5814;BME280;2933;52.302;8.134;2023-09-19T06:57:39;99848.22;;;14.37;100.00
5814;BME280;2933;52.302;8.134;2023-09-19T07:02:43;99857.47;;;14.32;100.00
5814;BME280;2933;52.302;8.134;2023-09-19T07:07:46;99846.34;;;14.18;100.00
5814;BME280;2933;52.302;8.134;2023-09-19T07:12:54;99870.50;;;14.02;100.00
5814;BME280;2933;52.302;8.134;2023-09-19T07:17:56;99879.28;;;14.22;100.00
5814;BME280;2933;52.302;8.134;2023-09-19T07:22:59;99873.19;;;14.22;100.00
5814;BME280;2933;52.302;8.134;2023-09-19T07:28:01;99869.41;;;14.46;100.00
5814;BME280;2933;52.302;8.134;2023-09-19T07:33:03;99882.63;;;14.65;100.00
5814;BME280;2933;52.302;8.134;2023-09-19T07:38:07;99874.09;;;14.93;100.00
5814;BME280;2933;52.302;8.134;2023-09-19T07:43:10;99864.13;;;14.96;100.00
5814;BME280;2933;52.302;8.134;2023-09-19T07:48:12;99849.31;;;15.05;100.00
5814;BME280;2933;52.302;8.134;2023-09-19T07:53:16;99859.84;;;15.15;100.00
5814;BME280;2933;52.302;8.134;2023-09-19T07:58:18;99867.59;;;15.07;100.00
5814;BME280;2933;52.302;8.134;2023-09-19T08:03:20;99880.91;;;15.25;100.00
5814;BME280;2933;52.302;8.134;2023-09-19T08:08:23;99885.63;;;15.31;100.00
5814;BME280;2933;52.302;8.134;2023-09-19T08:13:25;99878.28;;;15.15;100.00
5814;BME280;2933;52.302;8.134;2023-09-19T08:18:27;99890.28;;;14.98;100.00
5814;BME280;2933;52.302;8.134;2023-09-19T08:23:31;99886.84;;;15.07;100.00
5814;BME280;2933;52.302;8.134;2023-09-19T08:28:33;99906.25;;;15.26;100.00
5814;BME280;2933;52.302;8.134;2023-09-19T08:33:35;99884.34;;;15.35;100.00
5814;BME280;2933;52.302;8.134;2023-09-19T08:38:39;99897.97;;;15.30;100.00
5814;BME280;2933;52.302;8.134;2023-09-19T08:43:40;99898.78;;;15.41;100.00
5814;BME280;2933;52.302;8.134;2023-09-19T08:48:45;99863.59;;;15.51;100.00
5814;BME280;2933;52.302;8.134;2023-09-19T08:53:58;99891.53;;;15.72;100.00
5814;BME280;2933;52.302;8.134;2023-09-19T08:59:04;99889.28;;;15.77;100.00
5814;BME280;2933;52.302;8.134;2023-09-19T09:04:08;99890.69;;;15.81;100.00
5814;BME280;2933;52.302;8.134;2023-09-19T09:09:14;99893.59;;;15.78;100.00
5814;BME280;2933;52.302;8.134;2023-09-19T09:14:16;99881.00;;;15.82;100.00
5814;BME280;2933;52.302;8.134;2023-09-19T09:19:18;99903.41;;;15.96;100.00
5814;BME280;2933;52.302;8.134;2023-09-19T09:24:29;99900.91;;;16.04;100.00
5814;BME280;2933;52.302;8.134;2023-09-19T09:29:44;99897.19;;;15.97;100.00
5814;BME280;2933;52.302;8.134;2023-09-19T09:34:53;99899.09;;;16.05;100.00
5814;BME280;2933;52.302;8.134;2023-09-19T09:39:58;99892.97;;;16.14;100.00
5814;BME280;2933;52.302;8.134;2023-09-19T09:45:20;99904.50;;;16.13;100.00
5814;BME280;2933;52.302;8.134;2023-09-19T09:50:30;99899.47;;;16.20;100.00
5814;BME280;2933;52.302;8.134;2023-09-19T09:56:03;99902.91;;;16.30;100.00
5814;BME280;2933;52.302;8.134;2023-09-19T10:01:06;99904.97;;;16.64;100.00
5814;BME280;2933;52.302;8.134;2023-09-19T10:06:16;99906.78;;;16.63;100.00
5814;BME280;2933;52.302;8.134;2023-09-19T10:11:28;99903.84;;;16.67;100.00
5814;BME280;2933;52.302;8.134;2023-09-19T10:16:32;99902.16;;;16.66;100.00
5814;BME280;2933;52.302;8.134;2023-09-19T10:21:36;99915.47;;;16.74;100.00
5814;BME280;2933;52.302;8.134;2023-09-19T10:26:41;99908.31;;;16.84;99.93
5814;BME280;2933;52.302;8.134;2023-09-19T10:31:44;99896.06;;;16.93;99.11
5814;BME280;2933;52.302;8.134;2023-09-19T10:36:48;99894.78;;;17.15;100.00
5814;BME280;2933;52.302;8.134;2023-09-19T10:41:56;99908.84;;;17.16;99.93
5814;BME280;2933;52.302;8.134;2023-09-19T10:47:05;99911.84;;;17.21;100.00
5814;BME280;2933;52.302;8.134;2023-09-19T10:52:07;99913.97;;;17.17;98.63
5814;BME280;2933;52.302;8.134;2023-09-19T10:57:19;99909.75;;;17.24;97.35
5814;BME280;2933;52.302;8.134;2023-09-19T11:02:22;99896.63;;;17.15;99.18
5814;BME280;2933;52.302;8.134;2023-09-19T11:07:25;99895.25;;;17.28;100.00
5814;BME280;2933;52.302;8.134;2023-09-19T11:12:50;99913.16;;;17.61;99.67
5814;BME280;2933;52.302;8.134;2023-09-19T11:17:52;99893.34;;;17.57;96.17
5814;BME280;2933;52.302;8.134;2023-09-19T11:23:26;99887.72;;;17.78;98.86
5814;BME280;2933;52.302;8.134;2023-09-19T11:28:31;99884.03;;;17.71;94.71
5814;BME280;2933;52.302;8.134;2023-09-19T11:33:33;99892.63;;;17.73;93.65
5814;BME280;2933;52.302;8.134;2023-09-19T11:38:59;99899.72;;;17.72;97.20
5814;BME280;2933;52.302;8.134;2023-09-19T11:44:35;99898.81;;;17.64;96.96
5814;BME280;2933;52.302;8.134;2023-09-19T11:49:40;99894.41;;;17.64;96.91
5814;BME280;2933;52.302;8.134;2023-09-19T11:54:43;99853.56;;;17.85;95.44
5814;BME280;2933;52.302;8.134;2023-09-19T11:59:48;99892.16;;;17.96;91.75
5814;BME280;2933;52.302;8.134;2023-09-19T12:04:53;99883.84;;;18.25;91.08
5814;BME280;2933;52.302;8.134;2023-09-19T12:10:03;99890.41;;;18.47;89.44
5814;BME280;2933;52.302;8.134;2023-09-19T12:15:08;99868.81;;;18.60;87.04
5814;BME280;2933;52.302;8.134;2023-09-19T12:20:11;99884.59;;;18.44;84.87
5814;BME280;2933;52.302;8.134;2023-09-19T12:25:14;99871.56;;;18.50;84.13
5814;BME280;2933;52.302;8.134;2023-09-19T12:30:19;99868.28;;;18.56;82.30
5814;BME280;2933;52.302;8.134;2023-09-19T12:35:27;99876.59;;;18.70;82.12
5814;BME280;2933;52.302;8.134;2023-09-19T12:40:30;99859.56;;;18.81;81.25
5814;BME280;2933;52.302;8.134;2023-09-19T12:45:35;99858.00;;;18.96;79.58
5814;BME280;2933;52.302;8.134;2023-09-19T12:51:00;99859.22;;;18.76;81.46
5814;BME280;2933;52.302;8.134;2023-09-19T12:56:06;99841.50;;;18.60;81.96
5814;BME280;2933;52.302;8.134;2023-09-19T13:01:15;99844.00;;;18.61;84.19
5814;BME280;2933;52.302;8.134;2023-09-19T13:06:35;99848.69;;;18.84;83.51
5814;BME280;2933;52.302;8.134;2023-09-19T13:11:39;99853.59;;;18.70;81.29
5814;BME280;2933;52.302;8.134;2023-09-19T13:17:00;99852.09;;;18.51;82.36
5814;BME280;2933;52.302;8.134;2023-09-19T13:22:04;99840.69;;;18.59;83.37
5814;BME280;2933;52.302;8.134;2023-09-19T13:27:08;99839.16;;;18.48;85.15
5814;BME280;2933;52.302;8.134;2023-09-19T13:32:12;99842.69;;;18.65;83.58
5814;BME280;2933;52.302;8.134;2023-09-19T13:37:14;99821.59;;;18.31;82.93
5814;BME280;2933;52.302;8.134;2023-09-19T13:42:17;99843.66;;;18.64;84.61
5814;BME280;2933;52.302;8.134;2023-09-19T13:47:23;99844.03;;;18.78;85.11
5814;BME280;2933;52.302;8.134;2023-09-19T13:52:27;99831.31;;;18.81;85.65
5814;BME280;2933;52.302;8.134;2023-09-19T13:57:30;99833.75;;;18.58;87.47
5814;BME280;2933;52.302;8.134;2023-09-19T14:02:35;99816.16;;;18.40;88.35
5814;BME280;2933;52.302;8.134;2023-09-19T14:07:36;99821.34;;;18.67;86.53
5814;BME280;2933;52.302;8.134;2023-09-19T14:12:38;99831.47;;;18.88;86.38
5814;BME280;2933;52.302;8.134;2023-09-19T14:17:42;99827.53;;;19.00;85.82
5814;BME280;2933;52.302;8.134;2023-09-19T14:22:45;99822.53;;;18.81;87.42
5814;BME280;2933;52.302;8.134;2023-09-19T14:27:47;99820.69;;;18.65;87.70
5814;BME280;2933;52.302;8.134;2023-09-19T14:32:50;99828.41;;;18.41;89.88
5814;BME280;2933;52.302;8.134;2023-09-19T14:37:52;99844.72;;;18.29;87.90
5814;BME280;2933;52.302;8.134;2023-09-19T14:42:54;99830.16;;;18.24;89.71
5814;BME280;2933;52.302;8.134;2023-09-19T14:47:57;99840.56;;;18.26;88.52
5814;BME280;2933;52.302;8.134;2023-09-19T14:52:58;99836.63;;;18.30;88.08
5814;BME280;2933;52.302;8.134;2023-09-19T14:58:02;99844.59;;;18.38;88.29
5814;BME280;2933;52.302;8.134;2023-09-19T15:03:05;99843.94;;;18.36;84.72
5814;BME280;2933;52.302;8.134;2023-09-19T15:08:07;99824.19;;;18.22;85.05
5814;BME280;2933;52.302;8.134;2023-09-19T15:13:08;99843.75;;;18.38;84.67
5814;BME280;2933;52.302;8.134;2023-09-19T15:18:11;99827.91;;;18.38;85.04
5814;BME280;2933;52.302;8.134;2023-09-19T15:23:13;99832.34;;;18.29;85.62
5814;BME280;2933;52.302;8.134;2023-09-19T15:28:16;99832.34;;;18.37;85.89
5814;BME280;2933;52.302;8.134;2023-09-19T15:33:20;99832.00;;;18.32;85.70
5814;BME280;2933;52.302;8.134;2023-09-19T15:38:21;99807.22;;;18.33;87.69
5814;BME280;2933;52.302;8.134;2023-09-19T15:43:23;99815.78;;;18.27;87.69
5814;BME280;2933;52.302;8.134;2023-09-19T15:48:26;99804.06;;;18.30;87.54
5814;BME280;2933;52.302;8.134;2023-09-19T15:53:28;99792.00;;;18.19;87.59
5814;BME280;2933;52.302;8.134;2023-09-19T15:58:31;99799.75;;;18.29;87.86
5814;BME280;2933;52.302;8.134;2023-09-19T16:03:36;99785.25;;;18.33;88.51
5814;BME280;2933;52.302;8.134;2023-09-19T16:08:39;99773.63;;;18.09;87.39
5814;BME280;2933;52.302;8.134;2023-09-19T16:13:42;99797.03;;;18.04;89.45
5814;BME280;2933;52.302;8.134;2023-09-19T16:18:47;99807.97;;;18.09;89.22
5814;BME280;2933;52.302;8.134;2023-09-19T16:23:50;99810.09;;;18.05;90.39
5814;BME280;2933;52.302;8.134;2023-09-19T16:28:54;99801.16;;;17.98;91.19
5814;BME280;2933;52.302;8.134;2023-09-19T16:33:58;99779.91;;;17.82;89.92
5814;BME280;2933;52.302;8.134;2023-09-19T16:39:00;99795.19;;;17.96;91.09
5814;BME280;2933;52.302;8.134;2023-09-19T16:44:04;99795.78;;;17.90;92.46
5814;BME280;2933;52.302;8.134;2023-09-19T16:49:09;99783.22;;;17.84;92.38
5814;BME280;2933;52.302;8.134;2023-09-19T16:54:14;99815.69;;;17.94;93.15
5814;BME280;2933;52.302;8.134;2023-09-19T16:59:24;99790.66;;;17.88;93.58
5814;BME280;2933;52.302;8.134;2023-09-19T17:04:27;99791.31;;;17.82;93.07
5814;BME280;2933;52.302;8.134;2023-09-19T17:09:31;99806.53;;;17.88;93.96
5814;BME280;2933;52.302;8.134;2023-09-19T17:14:37;99798.53;;;17.80;94.96
5814;BME280;2933;52.302;8.134;2023-09-19T17:19:40;99801.50;;;17.77;94.51
5814;BME280;2933;52.302;8.134;2023-09-19T17:24:42;99796.91;;;17.79;94.17
5814;BME280;2933;52.302;8.134;2023-09-19T17:29:45;99807.31;;;17.81;94.79
5814;BME280;2933;52.302;8.134;2023-09-19T17:34:48;99803.63;;;17.73;95.54
5814;BME280;2933;52.302;8.134;2023-09-19T17:39:50;99810.88;;;17.71;94.90
5814;BME280;2933;52.302;8.134;2023-09-19T17:44:51;99813.53;;;17.71;95.87
5814;BME280;2933;52.302;8.134;2023-09-19T17:49:54;99813.16;;;17.66;95.59
5814;BME280;2933;52.302;8.134;2023-09-19T17:54:56;99807.59;;;17.69;95.17
5814;BME280;2933;52.302;8.134;2023-09-19T17:59:58;99808.09;;;17.73;96.04
5814;BME280;2933;52.302;8.134;2023-09-19T18:05:03;99812.34;;;17.66;96.65
5814;BME280;2933;52.302;8.134;2023-09-19T18:10:06;99806.56;;;17.62;95.49
5814;BME280;2933;52.302;8.134;2023-09-19T18:15:08;99825.19;;;17.60;95.50
5814;BME280;2933;52.302;8.134;2023-09-19T18:20:14;99818.41;;;17.58;95.86
5814;BME280;2933;52.302;8.134;2023-09-19T18:25:16;99817.28;;;17.60;95.90
5814;BME280;2933;52.302;8.134;2023-09-19T18:30:19;99825.50;;;17.57;95.77
5814;BME280;2933;52.302;8.134;2023-09-19T18:35:23;99827.69;;;17.62;95.65
5814;BME280;2933;52.302;8.134;2023-09-19T18:40:27;99825.34;;;17.59;96.69
5814;BME280;2933;52.302;8.134;2023-09-19T18:45:29;99831.47;;;17.59;96.75
5814;BME280;2933;52.302;8.134;2023-09-19T18:50:34;99827.69;;;17.62;96.58
5814;BME280;2933;52.302;8.134;2023-09-19T18:55:35;99836.75;;;17.59;97.43
5814;BME280;2933;52.302;8.134;2023-09-19T19:00:37;99818.25;;;17.59;96.88
5814;BME280;2933;52.302;8.134;2023-09-19T19:05:41;99832.44;;;17.58;97.04
5814;BME280;2933;52.302;8.134;2023-09-19T19:10:44;99838.25;;;17.62;97.47
5814;BME280;2933;52.302;8.134;2023-09-19T19:15:45;99823.03;;;17.56;98.36
5814;BME280;2933;52.302;8.134;2023-09-19T19:20:56;99820.84;;;17.51;98.86
5814;BME280;2933;52.302;8.134;2023-09-19T19:25:58;99822.94;;;17.48;99.13
5814;BME280;2933;52.302;8.134;2023-09-19T19:31:00;99826.47;;;17.56;99.15
5814;BME280;2933;52.302;8.134;2023-09-19T19:36:05;99831.09;;;17.54;99.23
5814;BME280;2933;52.302;8.134;2023-09-19T19:41:07;99819.59;;;17.37;99.11
5814;BME280;2933;52.302;8.134;2023-09-19T19:46:09;99839.03;;;17.54;99.67
5814;BME280;2933;52.302;8.134;2023-09-19T19:51:13;99835.00;;;17.50;100.00
5814;BME280;2933;52.302;8.134;2023-09-19T19:56:14;99831.41;;;17.51;100.00
5814;BME280;2933;52.302;8.134;2023-09-19T20:01:16;99844.03;;;17.39;100.00
5814;BME280;2933;52.302;8.134;2023-09-19T20:06:19;99841.06;;;17.42;100.00
5814;BME280;2933;52.302;8.134;2023-09-19T20:11:21;99836.94;;;17.40;100.00
5814;BME280;2933;52.302;8.134;2023-09-19T20:16:29;99845.81;;;17.39;100.00
5814;BME280;2933;52.302;8.134;2023-09-19T20:21:33;99849.00;;;17.42;100.00
5814;BME280;2933;52.302;8.134;2023-09-19T20:26:36;99843.56;;;17.44;100.00
5814;BME280;2933;52.302;8.134;2023-09-19T20:31:38;99831.06;;;17.28;100.00
5814;BME280;2933;52.302;8.134;2023-09-19T20:36:41;99838.44;;;17.42;100.00
5814;BME280;2933;52.302;8.134;2023-09-19T20:41:42;99846.06;;;17.46;100.00
5814;BME280;2933;52.302;8.134;2023-09-19T20:46:45;99849.94;;;17.33;100.00
5814;BME280;2933;52.302;8.134;2023-09-19T20:51:49;99849.59;;;17.36;100.00
5814;BME280;2933;52.302;8.134;2023-09-19T20:56:51;99860.16;;;17.36;100.00
5814;BME280;2933;52.302;8.134;2023-09-19T21:01:54;99856.19;;;17.32;100.00
5814;BME280;2933;52.302;8.134;2023-09-19T21:06:57;99845.88;;;17.21;100.00
5814;BME280;2933;52.302;8.134;2023-09-19T21:11:59;99855.81;;;17.27;100.00
5814;BME280;2933;52.302;8.134;2023-09-19T21:17:01;99850.38;;;17.28;100.00
5814;BME280;2933;52.302;8.134;2023-09-19T21:22:04;99849.09;;;17.33;100.00
5814;BME280;2933;52.302;8.134;2023-09-19T21:27:05;99851.19;;;17.29;100.00
5814;BME280;2933;52.302;8.134;2023-09-19T21:32:07;99846.91;;;17.28;100.00
5814;BME280;2933;52.302;8.134;2023-09-19T21:37:10;99853.84;;;17.29;100.00
5814;BME280;2933;52.302;8.134;2023-09-19T21:42:14;99851.69;;;17.24;100.00
5814;BME280;2933;52.302;8.134;2023-09-19T21:47:16;99865.47;;;17.18;100.00
5814;BME280;2933;52.302;8.134;2023-09-19T21:52:19;99852.19;;;17.10;100.00
5814;BME280;2933;52.302;8.134;2023-09-19T21:57:21;99856.50;;;17.11;100.00
5814;BME280;2933;52.302;8.134;2023-09-19T22:02:22;99848.13;;;17.16;100.00
5814;BME280;2933;52.302;8.134;2023-09-19T22:07:25;99841.03;;;17.16;100.00
5814;BME280;2933;52.302;8.134;2023-09-19T22:12:27;99833.56;;;17.11;100.00
5814;BME280;2933;52.302;8.134;2023-09-19T22:17:30;99825.66;;;17.11;100.00
5814;BME280;2933;52.302;8.134;2023-09-19T22:22:33;99828.13;;;17.13;100.00
5814;BME280;2933;52.302;8.134;2023-09-19T22:27:35;99824.69;;;17.12;100.00
5814;BME280;2933;52.302;8.134;2023-09-19T22:32:36;99801.84;;;17.03;100.00
5814;BME280;2933;52.302;8.134;2023-09-19T22:37:39;99822.19;;;17.11;100.00
5814;BME280;2933;52.302;8.134;2023-09-19T22:42:42;99812.63;;;17.10;100.00
5814;BME280;2933;52.302;8.134;2023-09-19T22:47:48;99830.28;;;17.09;100.00
5814;BME280;2933;52.302;8.134;2023-09-19T22:52:51;99820.31;;;17.03;100.00
5814;BME280;2933;52.302;8.134;2023-09-19T22:57:54;99825.13;;;17.08;100.00
5814;BME280;2933;52.302;8.134;2023-09-19T23:02:56;99817.28;;;17.16;100.00
5814;BME280;2933;52.302;8.134;2023-09-19T23:07:59;99817.75;;;17.11;100.00
5814;BME280;2933;52.302;8.134;2023-09-19T23:13:03;99822.72;;;17.15;100.00
5814;BME280;2933;52.302;8.134;2023-09-19T23:18:09;99821.66;;;17.07;100.00
5814;BME280;2933;52.302;8.134;2023-09-19T23:23:12;99827.31;;;17.12;100.00
5814;BME280;2933;52.302;8.134;2023-09-19T23:28:17;99836.75;;;17.15;100.00
5814;BME280;2933;52.302;8.134;2023-09-19T23:33:19;99832.31;;;17.16;100.00
5814;BME280;2933;52.302;8.134;2023-09-19T23:38:23;99832.31;;;17.16;100.00
5814;BME280;2933;52.302;8.134;2023-09-19T23:43:25;99836.75;;;17.15;100.00
5814;BME280;2933;52.302;8.134;2023-09-19T23:48:32;99829.25;;;17.10;100.00
5814;BME280;2933;52.302;8.134;2023-09-19T23:53:35;99830.78;;;17.13;100.00
5814;BME280;2933;52.302;8.134;2023-09-19T23:58:37;99824.53;;;17.14;100.00
